sensor_id;sensor_type;location;lat;lon;timestamp;P1;durP1;ratioP1;P2;durP2;ratioP2
80398;SDS011;69722;48.642;9.142;2023-07-30T00:01:06;7.72;;;4.72;;
80398;SDS011;69722;48.642;9.142;2023-07-30T00:03:32;7.30;;;4.72;;
80398;SDS011;69722;48.642;9.142;2023-07-30T00:05:57;7.03;;;3.90;;
80398;SDS011;69722;48.642;9.142;2023-07-30T00:08:23;7.20;;;4.50;;
80398;SDS011;69722;48.642;9.142;2023-07-30T00:10:48;7.65;;;4.43;;
80398;SDS011;69722;48.642;9.142;2023-07-30T00:13:14;6.65;;;3.75;;
80398;SDS011;69722;48.642;9.142;2023-07-30T00:15:39;5.50;;;3.80;;
80398;SDS011;69722;48.642;9.142;2023-07-30T00:18:04;7.00;;;4.47;;
80398;SDS011;69722;48.642;9.142;2023-07-30T00:20:30;8.23;;;4.63;;
80398;SDS011;69722;48.642;9.142;2023-07-30T00:22:55;6.03;;;3.87;;
80398;SDS011;69722;48.642;9.142;2023-07-30T00:25:20;6.30;;;3.87;;
80398;SDS011;69722;48.642;9.142;2023-07-30T00:27:45;5.57;;;3.70;;
80398;SDS011;69722;48.642;9.142;2023-07-30T00:30:11;6.50;;;4.03;;
80398;SDS011;69722;48.642;9.142;2023-07-30T00:32:36;6.23;;;3.70;;
80398;SDS011;69722;48.642;9.142;2023-07-30T00:35:05;7.93;;;3.92;;
80398;SDS011;69722;48.642;9.142;2023-07-30T00:37:31;8.10;;;3.92;;
80398;SDS011;69722;48.642;9.142;2023-07-30T00:39:56;6.03;;;3.50;;
80398;SDS011;69722;48.642;9.142;2023-07-30T00:42:22;7.20;;;3.40;;
80398;SDS011;69722;48.642;9.142;2023-07-30T00:44:47;5.87;;;3.73;;
80398;SDS011;69722;48.642;9.142;2023-07-30T00:47:12;5.90;;;3.73;;
80398;SDS011;69722;48.642;9.142;2023-07-30T00:49:38;5.60;;;3.72;;
80398;SDS011;69722;48.642;9.142;2023-07-30T00:52:04;5.75;;;3.58;;
80398;SDS011;69722;48.642;9.142;2023-07-30T00:54:30;4.80;;;3.28;;
80398;SDS011;69722;48.642;9.142;2023-07-30T00:56:55;7.40;;;3.90;;
80398;SDS011;69722;48.642;9.142;2023-07-30T00:59:21;7.80;;;3.55;;
80398;SDS011;69722;48.642;9.142;2023-07-30T01:01:46;5.55;;;3.78;;
80398;SDS011;69722;48.642;9.142;2023-07-30T01:04:13;6.38;;;3.75;;
80398;SDS011;69722;48.642;9.142;2023-07-30T01:06:39;6.72;;;3.42;;
80398;SDS011;69722;48.642;9.142;2023-07-30T01:09:04;7.07;;;3.67;;
80398;SDS011;69722;48.642;9.142;2023-07-30T01:11:30;5.57;;;3.20;;
80398;SDS011;69722;48.642;9.142;2023-07-30T01:13:55;5.10;;;3.47;;
80398;SDS011;69722;48.642;9.142;2023-07-30T01:16:20;6.28;;;3.63;;
80398;SDS011;69722;48.642;9.142;2023-07-30T01:18:46;5.93;;;3.30;;
80398;SDS011;69722;48.642;9.142;2023-07-30T01:21:11;6.85;;;3.78;;
80398;SDS011;69722;48.642;9.142;2023-07-30T01:23:37;5.70;;;3.60;;
80398;SDS011;69722;48.642;9.142;2023-07-30T01:26:09;5.43;;;3.57;;
80398;SDS011;69722;48.642;9.142;2023-07-30T01:28:37;7.95;;;3.75;;
80398;SDS011;69722;48.642;9.142;2023-07-30T01:31:07;7.05;;;3.83;;
80398;SDS011;69722;48.642;9.142;2023-07-30T01:33:33;5.25;;;3.28;;
80398;SDS011;69722;48.642;9.142;2023-07-30T01:36:01;6.10;;;3.80;;
80398;SDS011;69722;48.642;9.142;2023-07-30T01:38:27;6.63;;;3.58;;
80398;SDS011;69722;48.642;9.142;2023-07-30T01:40:53;6.32;;;4.18;;
80398;SDS011;69722;48.642;9.142;2023-07-30T01:43:19;6.00;;;3.72;;
80398;SDS011;69722;48.642;9.142;2023-07-30T01:45:44;6.07;;;3.60;;
80398;SDS011;69722;48.642;9.142;2023-07-30T01:48:09;6.43;;;3.20;;
80398;SDS011;69722;48.642;9.142;2023-07-30T01:50:35;6.90;;;2.97;;
80398;SDS011;69722;48.642;9.142;2023-07-30T01:53:00;6.15;;;3.47;;
80398;SDS011;69722;48.642;9.142;2023-07-30T01:55:25;5.67;;;3.57;;
80398;SDS011;69722;48.642;9.142;2023-07-30T01:57:51;6.03;;;3.90;;
80398;SDS011;69722;48.642;9.142;2023-07-30T02:00:16;4.57;;;3.13;;
80398;SDS011;69722;48.642;9.142;2023-07-30T02:02:41;5.30;;;3.17;;
80398;SDS011;69722;48.642;9.142;2023-07-30T02:05:07;5.33;;;3.33;;
80398;SDS011;69722;48.642;9.142;2023-07-30T02:07:32;7.60;;;3.22;;
80398;SDS011;69722;48.642;9.142;2023-07-30T02:09:57;5.47;;;2.90;;
80398;SDS011;69722;48.642;9.142;2023-07-30T02:12:23;5.03;;;2.80;;
80398;SDS011;69722;48.642;9.142;2023-07-30T02:14:48;5.30;;;3.20;;
80398;SDS011;69722;48.642;9.142;2023-07-30T02:17:14;5.93;;;3.30;;
80398;SDS011;69722;48.642;9.142;2023-07-30T02:19:39;6.07;;;2.95;;
80398;SDS011;69722;48.642;9.142;2023-07-30T02:22:04;5.00;;;3.03;;
80398;SDS011;69722;48.642;9.142;2023-07-30T02:24:29;6.00;;;3.33;;
80398;SDS011;69722;48.642;9.142;2023-07-30T02:26:55;5.60;;;2.73;;
80398;SDS011;69722;48.642;9.142;2023-07-30T02:29:20;5.37;;;3.00;;
80398;SDS011;69722;48.642;9.142;2023-07-30T02:31:46;5.03;;;2.97;;
80398;SDS011;69722;48.642;9.142;2023-07-30T02:34:11;6.20;;;3.77;;
80398;SDS011;69722;48.642;9.142;2023-07-30T02:36:36;8.07;;;3.37;;
80398;SDS011;69722;48.642;9.142;2023-07-30T02:39:02;5.03;;;3.30;;
80398;SDS011;69722;48.642;9.142;2023-07-30T02:41:27;4.90;;;2.67;;
80398;SDS011;69722;48.642;9.142;2023-07-30T02:43:52;5.50;;;3.10;;
80398;SDS011;69722;48.642;9.142;2023-07-30T02:46:18;4.63;;;3.00;;
80398;SDS011;69722;48.642;9.142;2023-07-30T02:48:43;5.20;;;3.27;;
80398;SDS011;69722;48.642;9.142;2023-07-30T02:51:08;4.87;;;3.13;;
80398;SDS011;69722;48.642;9.142;2023-07-30T02:53:34;6.90;;;3.47;;
80398;SDS011;69722;48.642;9.142;2023-07-30T02:55:59;6.47;;;3.67;;
80398;SDS011;69722;48.642;9.142;2023-07-30T02:58:24;5.03;;;2.87;;
80398;SDS011;69722;48.642;9.142;2023-07-30T03:00:50;4.77;;;2.80;;
80398;SDS011;69722;48.642;9.142;2023-07-30T03:03:16;5.93;;;3.47;;
80398;SDS011;69722;48.642;9.142;2023-07-30T03:05:42;5.20;;;2.72;;
80398;SDS011;69722;48.642;9.142;2023-07-30T03:08:08;7.45;;;4.15;;
80398;SDS011;69722;48.642;9.142;2023-07-30T03:10:33;6.10;;;3.67;;
80398;SDS011;69722;48.642;9.142;2023-07-30T03:12:58;4.27;;;2.77;;
80398;SDS011;69722;48.642;9.142;2023-07-30T03:15:23;4.97;;;3.37;;
80398;SDS011;69722;48.642;9.142;2023-07-30T03:17:49;5.57;;;3.57;;
80398;SDS011;69722;48.642;9.142;2023-07-30T03:20:14;5.17;;;3.50;;
80398;SDS011;69722;48.642;9.142;2023-07-30T03:22:39;4.37;;;2.90;;
80398;SDS011;69722;48.642;9.142;2023-07-30T03:25:05;4.63;;;2.93;;
80398;SDS011;69722;48.642;9.142;2023-07-30T03:27:31;6.75;;;3.20;;
80398;SDS011;69722;48.642;9.142;2023-07-30T03:29:56;5.23;;;2.87;;
80398;SDS011;69722;48.642;9.142;2023-07-30T03:32:21;5.10;;;3.00;;
80398;SDS011;69722;48.642;9.142;2023-07-30T03:34:46;5.20;;;3.13;;
80398;SDS011;69722;48.642;9.142;2023-07-30T03:37:12;8.10;;;3.43;;
80398;SDS011;69722;48.642;9.142;2023-07-30T03:39:37;5.90;;;3.13;;
80398;SDS011;69722;48.642;9.142;2023-07-30T03:42:02;6.97;;;2.97;;
80398;SDS011;69722;48.642;9.142;2023-07-30T03:44:28;6.57;;;3.72;;
80398;SDS011;69722;48.642;9.142;2023-07-30T03:46:53;5.43;;;3.40;;
80398;SDS011;69722;48.642;9.142;2023-07-30T03:49:19;5.00;;;2.83;;
80398;SDS011;69722;48.642;9.142;2023-07-30T03:51:44;4.65;;;2.72;;
80398;SDS011;69722;48.642;9.142;2023-07-30T03:54:09;11.45;;;3.20;;
80398;SDS011;69722;48.642;9.142;2023-07-30T03:56:35;6.03;;;2.67;;
80398;SDS011;69722;48.642;9.142;2023-07-30T03:59:00;5.13;;;2.93;;
80398;SDS011;69722;48.642;9.142;2023-07-30T04:01:25;4.83;;;3.03;;
80398;SDS011;69722;48.642;9.142;2023-07-30T04:03:51;5.68;;;3.63;;
80398;SDS011;69722;48.642;9.142;2023-07-30T04:06:16;6.07;;;3.43;;
80398;SDS011;69722;48.642;9.142;2023-07-30T04:08:42;6.23;;;3.07;;
80398;SDS011;69722;48.642;9.142;2023-07-30T04:11:07;4.67;;;3.00;;
80398;SDS011;69722;48.642;9.142;2023-07-30T04:13:32;4.35;;;2.63;;
80398;SDS011;69722;48.642;9.142;2023-07-30T04:15:58;5.50;;;3.37;;
80398;SDS011;69722;48.642;9.142;2023-07-30T04:18:23;7.13;;;2.97;;
80398;SDS011;69722;48.642;9.142;2023-07-30T04:20:48;5.53;;;3.30;;
80398;SDS011;69722;48.642;9.142;2023-07-30T04:23:14;4.13;;;2.63;;
80398;SDS011;69722;48.642;9.142;2023-07-30T04:25:39;5.87;;;2.93;;
80398;SDS011;69722;48.642;9.142;2023-07-30T04:28:04;8.83;;;3.67;;
80398;SDS011;69722;48.642;9.142;2023-07-30T04:30:30;5.07;;;3.17;;
80398;SDS011;69722;48.642;9.142;2023-07-30T04:32:55;7.00;;;3.60;;
80398;SDS011;69722;48.642;9.142;2023-07-30T04:35:20;5.17;;;3.13;;
80398;SDS011;69722;48.642;9.142;2023-07-30T04:37:46;5.43;;;3.27;;
80398;SDS011;69722;48.642;9.142;2023-07-30T04:40:11;6.40;;;3.27;;
80398;SDS011;69722;48.642;9.142;2023-07-30T04:42:36;6.37;;;3.20;;
80398;SDS011;69722;48.642;9.142;2023-07-30T04:45:01;5.20;;;2.87;;
80398;SDS011;69722;48.642;9.142;2023-07-30T04:47:27;6.20;;;3.95;;
80398;SDS011;69722;48.642;9.142;2023-07-30T04:49:53;4.63;;;2.80;;
80398;SDS011;69722;48.642;9.142;2023-07-30T04:52:18;8.47;;;3.87;;
80398;SDS011;69722;48.642;9.142;2023-07-30T04:54:44;5.40;;;2.88;;
80398;SDS011;69722;48.642;9.142;2023-07-30T04:57:09;8.50;;;4.27;;
80398;SDS011;69722;48.642;9.142;2023-07-30T04:59:34;3.53;;;2.33;;
80398;SDS011;69722;48.642;9.142;2023-07-30T05:02:00;5.97;;;3.20;;
80398;SDS011;69722;48.642;9.142;2023-07-30T05:04:25;6.53;;;3.17;;
80398;SDS011;69722;48.642;9.142;2023-07-30T05:06:51;6.63;;;3.33;;
80398;SDS011;69722;48.642;9.142;2023-07-30T05:09:16;4.70;;;2.73;;
80398;SDS011;69722;48.642;9.142;2023-07-30T05:11:42;5.35;;;3.03;;
80398;SDS011;69722;48.642;9.142;2023-07-30T05:14:07;12.60;;;3.83;;
80398;SDS011;69722;48.642;9.142;2023-07-30T05:16:32;6.77;;;3.37;;
80398;SDS011;69722;48.642;9.142;2023-07-30T05:18:58;5.77;;;3.40;;
80398;SDS011;69722;48.642;9.142;2023-07-30T05:21:23;4.47;;;2.92;;
80398;SDS011;69722;48.642;9.142;2023-07-30T05:23:49;5.53;;;2.87;;
80398;SDS011;69722;48.642;9.142;2023-07-30T05:26:14;5.03;;;3.50;;
80398;SDS011;69722;48.642;9.142;2023-07-30T05:28:42;4.37;;;2.73;;
80398;SDS011;69722;48.642;9.142;2023-07-30T05:31:07;3.90;;;2.75;;
80398;SDS011;69722;48.642;9.142;2023-07-30T05:33:33;5.97;;;2.90;;
80398;SDS011;69722;48.642;9.142;2023-07-30T05:35:58;5.70;;;3.57;;
80398;SDS011;69722;48.642;9.142;2023-07-30T05:38:23;5.63;;;3.27;;
80398;SDS011;69722;48.642;9.142;2023-07-30T05:40:49;4.53;;;2.93;;
80398;SDS011;69722;48.642;9.142;2023-07-30T05:43:15;6.05;;;3.22;;
80398;SDS011;69722;48.642;9.142;2023-07-30T05:45:40;5.47;;;3.13;;
80398;SDS011;69722;48.642;9.142;2023-07-30T05:48:05;8.27;;;2.88;;
80398;SDS011;69722;48.642;9.142;2023-07-30T05:50:31;5.53;;;3.20;;
80398;SDS011;69722;48.642;9.142;2023-07-30T05:52:56;5.50;;;3.37;;
80398;SDS011;69722;48.642;9.142;2023-07-30T05:55:21;5.07;;;3.17;;
80398;SDS011;69722;48.642;9.142;2023-07-30T05:57:47;4.90;;;2.80;;
80398;SDS011;69722;48.642;9.142;2023-07-30T06:00:12;6.13;;;3.10;;
80398;SDS011;69722;48.642;9.142;2023-07-30T06:02:38;5.47;;;2.50;;
80398;SDS011;69722;48.642;9.142;2023-07-30T06:05:03;5.18;;;3.20;;
80398;SDS011;69722;48.642;9.142;2023-07-30T06:07:35;8.15;;;2.92;;
80398;SDS011;69722;48.642;9.142;2023-07-30T06:10:02;7.35;;;3.42;;
80398;SDS011;69722;48.642;9.142;2023-07-30T06:12:28;5.25;;;2.97;;
80398;SDS011;69722;48.642;9.142;2023-07-30T06:14:53;5.40;;;3.00;;
80398;SDS011;69722;48.642;9.142;2023-07-30T06:17:19;9.87;;;3.87;;
80398;SDS011;69722;48.642;9.142;2023-07-30T06:19:44;4.70;;;2.90;;
80398;SDS011;69722;48.642;9.142;2023-07-30T06:22:09;4.63;;;3.20;;
80398;SDS011;69722;48.642;9.142;2023-07-30T06:24:35;5.80;;;3.22;;
80398;SDS011;69722;48.642;9.142;2023-07-30T06:27:00;7.17;;;3.30;;
80398;SDS011;69722;48.642;9.142;2023-07-30T06:29:25;5.20;;;2.73;;
80398;SDS011;69722;48.642;9.142;2023-07-30T06:31:51;6.13;;;3.17;;
80398;SDS011;69722;48.642;9.142;2023-07-30T06:34:16;4.90;;;3.08;;
80398;SDS011;69722;48.642;9.142;2023-07-30T06:36:41;4.07;;;2.57;;
80398;SDS011;69722;48.642;9.142;2023-07-30T06:39:07;5.23;;;3.13;;
80398;SDS011;69722;48.642;9.142;2023-07-30T06:41:32;4.83;;;3.00;;
80398;SDS011;69722;48.642;9.142;2023-07-30T06:43:57;4.57;;;2.70;;
80398;SDS011;69722;48.642;9.142;2023-07-30T06:46:23;4.68;;;2.95;;
80398;SDS011;69722;48.642;9.142;2023-07-30T06:48:48;6.33;;;2.83;;
80398;SDS011;69722;48.642;9.142;2023-07-30T06:51:13;4.30;;;2.67;;
80398;SDS011;69722;48.642;9.142;2023-07-30T06:53:39;4.70;;;2.57;;
80398;SDS011;69722;48.642;9.142;2023-07-30T06:56:04;5.00;;;2.83;;
80398;SDS011;69722;48.642;9.142;2023-07-30T06:58:30;5.70;;;3.10;;
80398;SDS011;69722;48.642;9.142;2023-07-30T07:00:55;5.07;;;3.03;;
80398;SDS011;69722;48.642;9.142;2023-07-30T07:03:20;5.70;;;2.50;;
80398;SDS011;69722;48.642;9.142;2023-07-30T07:05:52;4.90;;;3.03;;
80398;SDS011;69722;48.642;9.142;2023-07-30T07:08:18;4.47;;;2.70;;
80398;SDS011;69722;48.642;9.142;2023-07-30T07:10:44;4.43;;;2.80;;
80398;SDS011;69722;48.642;9.142;2023-07-30T07:13:09;4.63;;;2.95;;
80398;SDS011;69722;48.642;9.142;2023-07-30T07:15:35;5.22;;;2.90;;
80398;SDS011;69722;48.642;9.142;2023-07-30T07:18:00;4.07;;;2.50;;
80398;SDS011;69722;48.642;9.142;2023-07-30T07:20:26;7.13;;;2.60;;
80398;SDS011;69722;48.642;9.142;2023-07-30T07:22:51;6.23;;;3.13;;
80398;SDS011;69722;48.642;9.142;2023-07-30T07:25:16;4.33;;;2.60;;
80398;SDS011;69722;48.642;9.142;2023-07-30T07:27:44;4.88;;;3.10;;
80398;SDS011;69722;48.642;9.142;2023-07-30T07:30:09;4.27;;;2.50;;
80398;SDS011;69722;48.642;9.142;2023-07-30T07:32:35;3.97;;;2.72;;
80398;SDS011;69722;48.642;9.142;2023-07-30T07:35:03;5.43;;;2.90;;
80398;SDS011;69722;48.642;9.142;2023-07-30T07:37:28;6.47;;;2.92;;
80398;SDS011;69722;48.642;9.142;2023-07-30T07:39:54;6.53;;;3.50;;
80398;SDS011;69722;48.642;9.142;2023-07-30T07:42:19;5.83;;;3.20;;
80398;SDS011;69722;48.642;9.142;2023-07-30T07:44:44;4.80;;;2.57;;
80398;SDS011;69722;48.642;9.142;2023-07-30T07:47:11;11.02;;;3.80;;
80398;SDS011;69722;48.642;9.142;2023-07-30T07:49:36;9.55;;;3.15;;
80398;SDS011;69722;48.642;9.142;2023-07-30T07:52:01;11.53;;;5.07;;
80398;SDS011;69722;48.642;9.142;2023-07-30T07:54:27;12.98;;;4.38;;
80398;SDS011;69722;48.642;9.142;2023-07-30T07:56:52;5.67;;;3.13;;
80398;SDS011;69722;48.642;9.142;2023-07-30T07:59:17;10.43;;;3.73;;
80398;SDS011;69722;48.642;9.142;2023-07-30T08:01:43;8.00;;;3.50;;
80398;SDS011;69722;48.642;9.142;2023-07-30T08:04:08;7.10;;;2.63;;
80398;SDS011;69722;48.642;9.142;2023-07-30T08:06:33;7.40;;;3.10;;
80398;SDS011;69722;48.642;9.142;2023-07-30T08:08:59;7.47;;;3.13;;
80398;SDS011;69722;48.642;9.142;2023-07-30T08:11:24;7.33;;;2.90;;
80398;SDS011;69722;48.642;9.142;2023-07-30T08:13:49;6.33;;;2.90;;
80398;SDS011;69722;48.642;9.142;2023-07-30T08:16:15;6.53;;;2.90;;
80398;SDS011;69722;48.642;9.142;2023-07-30T08:18:40;4.55;;;2.70;;
80398;SDS011;69722;48.642;9.142;2023-07-30T08:21:05;6.10;;;3.03;;
80398;SDS011;69722;48.642;9.142;2023-07-30T08:23:31;5.53;;;3.40;;
80398;SDS011;69722;48.642;9.142;2023-07-30T08:25:56;6.33;;;2.57;;
80398;SDS011;69722;48.642;9.142;2023-07-30T08:28:21;5.40;;;2.80;;
80398;SDS011;69722;48.642;9.142;2023-07-30T08:30:47;6.87;;;3.13;;
80398;SDS011;69722;48.642;9.142;2023-07-30T08:33:13;6.25;;;2.83;;
80398;SDS011;69722;48.642;9.142;2023-07-30T08:35:38;8.77;;;4.20;;
80398;SDS011;69722;48.642;9.142;2023-07-30T08:38:03;29.43;;;17.13;;
80398;SDS011;69722;48.642;9.142;2023-07-30T08:40:29;22.30;;;14.20;;
80398;SDS011;69722;48.642;9.142;2023-07-30T08:42:54;17.10;;;9.27;;
80398;SDS011;69722;48.642;9.142;2023-07-30T08:45:19;13.87;;;8.57;;
80398;SDS011;69722;48.642;9.142;2023-07-30T08:47:45;17.90;;;8.63;;
80398;SDS011;69722;48.642;9.142;2023-07-30T08:50:12;10.35;;;6.25;;
80398;SDS011;69722;48.642;9.142;2023-07-30T08:52:38;9.80;;;4.25;;
80398;SDS011;69722;48.642;9.142;2023-07-30T08:55:04;7.07;;;4.25;;
80398;SDS011;69722;48.642;9.142;2023-07-30T08:57:30;6.07;;;3.90;;
80398;SDS011;69722;48.642;9.142;2023-07-30T09:00:05;8.70;;;4.40;;
80398;SDS011;69722;48.642;9.142;2023-07-30T09:02:51;7.55;;;4.28;;
80398;SDS011;69722;48.642;9.142;2023-07-30T09:05:18;7.40;;;4.53;;
80398;SDS011;69722;48.642;9.142;2023-07-30T09:07:47;9.82;;;4.15;;
80398;SDS011;69722;48.642;9.142;2023-07-30T09:10:13;8.02;;;4.30;;
80398;SDS011;69722;48.642;9.142;2023-07-30T09:12:39;6.85;;;3.40;;
80398;SDS011;69722;48.642;9.142;2023-07-30T09:15:05;9.05;;;4.30;;
80398;SDS011;69722;48.642;9.142;2023-07-30T09:17:31;5.80;;;3.55;;
80398;SDS011;69722;48.642;9.142;2023-07-30T09:20:01;6.93;;;3.15;;
80398;SDS011;69722;48.642;9.142;2023-07-30T09:22:29;5.70;;;3.28;;
80398;SDS011;69722;48.642;9.142;2023-07-30T09:24:58;5.20;;;3.05;;
80398;SDS011;69722;48.642;9.142;2023-07-30T09:27:27;6.90;;;4.72;;
80398;SDS011;69722;48.642;9.142;2023-07-30T09:29:53;4.43;;;2.97;;
80398;SDS011;69722;48.642;9.142;2023-07-30T09:32:20;4.68;;;2.67;;
80398;SDS011;69722;48.642;9.142;2023-07-30T09:34:46;4.75;;;2.75;;
80398;SDS011;69722;48.642;9.142;2023-07-30T09:37:12;5.72;;;3.70;;
80398;SDS011;69722;48.642;9.142;2023-07-30T09:39:38;5.13;;;3.00;;
80398;SDS011;69722;48.642;9.142;2023-07-30T09:42:03;5.78;;;2.92;;
80398;SDS011;69722;48.642;9.142;2023-07-30T09:44:31;4.97;;;2.80;;
80398;SDS011;69722;48.642;9.142;2023-07-30T09:46:58;5.53;;;3.28;;
80398;SDS011;69722;48.642;9.142;2023-07-30T09:49:23;4.25;;;2.65;;
80398;SDS011;69722;48.642;9.142;2023-07-30T09:51:49;4.13;;;2.70;;
80398;SDS011;69722;48.642;9.142;2023-07-30T09:54:16;4.95;;;2.80;;
80398;SDS011;69722;48.642;9.142;2023-07-30T09:56:42;8.37;;;3.37;;
80398;SDS011;69722;48.642;9.142;2023-07-30T09:59:08;4.05;;;2.55;;
80398;SDS011;69722;48.642;9.142;2023-07-30T10:01:46;4.95;;;2.50;;
80398;SDS011;69722;48.642;9.142;2023-07-30T10:04:14;5.13;;;3.03;;
80398;SDS011;69722;48.642;9.142;2023-07-30T10:06:48;3.72;;;2.38;;
80398;SDS011;69722;48.642;9.142;2023-07-30T10:09:16;4.38;;;2.60;;
80398;SDS011;69722;48.642;9.142;2023-07-30T10:11:42;5.03;;;3.10;;
80398;SDS011;69722;48.642;9.142;2023-07-30T10:14:10;6.00;;;2.83;;
80398;SDS011;69722;48.642;9.142;2023-07-30T10:16:36;4.65;;;3.00;;
80398;SDS011;69722;48.642;9.142;2023-07-30T10:19:01;5.72;;;2.97;;
80398;SDS011;69722;48.642;9.142;2023-07-30T10:21:27;5.05;;;3.05;;
80398;SDS011;69722;48.642;9.142;2023-07-30T10:24:01;4.65;;;2.28;;
80398;SDS011;69722;48.642;9.142;2023-07-30T10:29:09;5.32;;;2.65;;
80398;SDS011;69722;48.642;9.142;2023-07-30T10:31:42;4.57;;;2.50;;
80398;SDS011;69722;48.642;9.142;2023-07-30T10:34:09;5.75;;;3.45;;
80398;SDS011;69722;48.642;9.142;2023-07-30T10:36:48;7.72;;;3.17;;
80398;SDS011;69722;48.642;9.142;2023-07-30T10:39:16;4.85;;;2.80;;
80398;SDS011;69722;48.642;9.142;2023-07-30T10:41:46;6.32;;;2.80;;
80398;SDS011;69722;48.642;9.142;2023-07-30T10:44:17;5.45;;;3.03;;
80398;SDS011;69722;48.642;9.142;2023-07-30T10:46:44;5.32;;;2.50;;
80398;SDS011;69722;48.642;9.142;2023-07-30T10:49:09;4.95;;;2.70;;
80398;SDS011;69722;48.642;9.142;2023-07-30T10:51:37;6.45;;;3.15;;
80398;SDS011;69722;48.642;9.142;2023-07-30T10:54:05;4.20;;;2.85;;
80398;SDS011;69722;48.642;9.142;2023-07-30T10:56:32;5.18;;;2.97;;
80398;SDS011;69722;48.642;9.142;2023-07-30T10:59:00;3.70;;;2.65;;
80398;SDS011;69722;48.642;9.142;2023-07-30T11:01:25;5.32;;;3.17;;
80398;SDS011;69722;48.642;9.142;2023-07-30T11:03:51;4.45;;;2.70;;
80398;SDS011;69722;48.642;9.142;2023-07-30T11:06:24;5.25;;;3.20;;
80398;SDS011;69722;48.642;9.142;2023-07-30T11:08:50;4.90;;;3.00;;
80398;SDS011;69722;48.642;9.142;2023-07-30T11:11:16;5.65;;;2.67;;
80398;SDS011;69722;48.642;9.142;2023-07-30T11:13:42;4.50;;;2.92;;
80398;SDS011;69722;48.642;9.142;2023-07-30T11:16:09;5.20;;;3.28;;
80398;SDS011;69722;48.642;9.142;2023-07-30T11:18:38;5.05;;;2.40;;
80398;SDS011;69722;48.642;9.142;2023-07-30T11:21:11;5.00;;;2.83;;
80398;SDS011;69722;48.642;9.142;2023-07-30T11:23:41;5.05;;;2.67;;
80398;SDS011;69722;48.642;9.142;2023-07-30T11:26:09;4.57;;;2.80;;
80398;SDS011;69722;48.642;9.142;2023-07-30T11:28:38;8.18;;;2.63;;
80398;SDS011;69722;48.642;9.142;2023-07-30T11:31:06;5.75;;;2.53;;
80398;SDS011;69722;48.642;9.142;2023-07-30T11:33:33;4.32;;;2.72;;
80398;SDS011;69722;48.642;9.142;2023-07-30T11:36:00;5.15;;;2.78;;
80398;SDS011;69722;48.642;9.142;2023-07-30T11:38:26;4.03;;;2.65;;
80398;SDS011;69722;48.642;9.142;2023-07-30T11:40:52;4.55;;;2.67;;
80398;SDS011;69722;48.642;9.142;2023-07-30T11:43:18;4.50;;;2.90;;
80398;SDS011;69722;48.642;9.142;2023-07-30T11:45:45;4.57;;;2.83;;
80398;SDS011;69722;48.642;9.142;2023-07-30T11:48:11;6.57;;;2.85;;
80398;SDS011;69722;48.642;9.142;2023-07-30T11:50:50;11.20;;;7.65;;
80398;SDS011;69722;48.642;9.142;2023-07-30T11:53:16;12.25;;;6.40;;
80398;SDS011;69722;48.642;9.142;2023-07-30T11:55:42;8.95;;;4.82;;
80398;SDS011;69722;48.642;9.142;2023-07-30T11:58:09;9.75;;;5.45;;
80398;SDS011;69722;48.642;9.142;2023-07-30T12:00:38;6.45;;;3.78;;
80398;SDS011;69722;48.642;9.142;2023-07-30T12:03:05;5.70;;;4.03;;
80398;SDS011;69722;48.642;9.142;2023-07-30T12:05:35;7.07;;;4.15;;
80398;SDS011;69722;48.642;9.142;2023-07-30T12:08:02;6.55;;;3.53;;
80398;SDS011;69722;48.642;9.142;2023-07-30T12:10:44;7.63;;;4.32;;
80398;SDS011;69722;48.642;9.142;2023-07-30T12:13:12;5.65;;;3.45;;
80398;SDS011;69722;48.642;9.142;2023-07-30T12:15:38;5.40;;;3.22;;
80398;SDS011;69722;48.642;9.142;2023-07-30T12:18:03;8.33;;;3.27;;
80398;SDS011;69722;48.642;9.142;2023-07-30T12:20:28;7.83;;;4.27;;
80398;SDS011;69722;48.642;9.142;2023-07-30T12:22:54;9.70;;;3.37;;
80398;SDS011;69722;48.642;9.142;2023-07-30T12:25:19;5.95;;;3.80;;
80398;SDS011;69722;48.642;9.142;2023-07-30T12:27:45;6.17;;;3.60;;
80398;SDS011;69722;48.642;9.142;2023-07-30T12:30:10;6.43;;;4.00;;
80398;SDS011;69722;48.642;9.142;2023-07-30T12:32:35;6.65;;;3.72;;
80398;SDS011;69722;48.642;9.142;2023-07-30T12:35:01;5.47;;;3.33;;
80398;SDS011;69722;48.642;9.142;2023-07-30T12:37:26;8.00;;;3.93;;
80398;SDS011;69722;48.642;9.142;2023-07-30T12:39:51;6.57;;;3.90;;
80398;SDS011;69722;48.642;9.142;2023-07-30T12:42:17;6.28;;;3.63;;
80398;SDS011;69722;48.642;9.142;2023-07-30T12:44:43;5.57;;;3.10;;
80398;SDS011;69722;48.642;9.142;2023-07-30T12:47:08;8.97;;;3.90;;
80398;SDS011;69722;48.642;9.142;2023-07-30T12:49:34;5.53;;;3.75;;
80398;SDS011;69722;48.642;9.142;2023-07-30T12:51:59;6.93;;;2.83;;
80398;SDS011;69722;48.642;9.142;2023-07-30T12:54:25;5.50;;;3.57;;
80398;SDS011;69722;48.642;9.142;2023-07-30T12:56:50;7.97;;;3.17;;
80398;SDS011;69722;48.642;9.142;2023-07-30T12:59:15;5.80;;;3.73;;
80398;SDS011;69722;48.642;9.142;2023-07-30T13:01:40;6.17;;;3.60;;
80398;SDS011;69722;48.642;9.142;2023-07-30T13:04:06;5.93;;;3.80;;
80398;SDS011;69722;48.642;9.142;2023-07-30T13:06:31;8.90;;;3.40;;
80398;SDS011;69722;48.642;9.142;2023-07-30T13:08:56;9.90;;;3.60;;
80398;SDS011;69722;48.642;9.142;2023-07-30T13:11:22;5.30;;;3.27;;
80398;SDS011;69722;48.642;9.142;2023-07-30T13:13:47;6.50;;;3.10;;
80398;SDS011;69722;48.642;9.142;2023-07-30T13:16:12;5.45;;;3.65;;
80398;SDS011;69722;48.642;9.142;2023-07-30T13:18:38;6.63;;;3.97;;
80398;SDS011;69722;48.642;9.142;2023-07-30T13:21:06;10.57;;;5.57;;
80398;SDS011;69722;48.642;9.142;2023-07-30T13:23:31;6.47;;;3.33;;
80398;SDS011;69722;48.642;9.142;2023-07-30T13:25:57;4.32;;;2.50;;
